sensor_id;sensor_type;location;lat;lon;timestamp;pressure;altitude;pressure_sealevel;temperature;humidity
62928;BME280;51070;52.236;-0.892;2023-02-28T00:02:17;102513.52;;;4.93;93.73
62928;BME280;51070;52.236;-0.892;2023-02-28T00:04:42;102512.29;;;4.93;93.86
62928;BME280;51070;52.236;-0.892;2023-02-28T00:07:08;102513.67;;;4.93;94.01
62928;BME280;51070;52.236;-0.892;2023-02-28T00:09:33;102517.31;;;4.95;94.17
62928;BME280;51070;52.236;-0.892;2023-02-28T00:11:59;102517.97;;;4.99;94.28
62928;BME280;51070;52.236;-0.892;2023-02-28T00:14:24;102516.39;;;5.03;94.36
62928;BME280;51070;52.236;-0.892;2023-02-28T00:16:49;102518.80;;;5.07;94.42
62928;BME280;51070;52.236;-0.892;2023-02-28T00:19:14;102515.83;;;5.11;94.19
62928;BME280;51070;52.236;-0.892;2023-02-28T00:21:40;102518.42;;;5.15;94.25
62928;BME280;51070;52.236;-0.892;2023-02-28T00:24:06;102522.66;;;5.19;93.91
62928;BME280;51070;52.236;-0.892;2023-02-28T00:26:31;102520.38;;;5.20;93.90
62928;BME280;51070;52.236;-0.892;2023-02-28T00:28:56;102522.79;;;5.20;93.71
62928;BME280;51070;52.236;-0.892;2023-02-28T00:31:22;102521.86;;;5.19;93.42
62928;BME280;51070;52.236;-0.892;2023-02-28T00:33:47;102526.09;;;5.19;93.40
62928;BME280;51070;52.236;-0.892;2023-02-28T00:36:12;102522.37;;;5.17;93.15
62928;BME280;51070;52.236;-0.892;2023-02-28T00:38:38;102521.56;;;5.14;93.02
62928;BME280;51070;52.236;-0.892;2023-02-28T00:41:04;102523.45;;;5.10;93.16
62928;BME280;51070;52.236;-0.892;2023-02-28T00:43:30;102523.67;;;5.06;93.35
62928;BME280;51070;52.236;-0.892;2023-02-28T00:45:55;102519.44;;;5.02;93.27
62928;BME280;51070;52.236;-0.892;2023-02-28T00:48:20;102521.64;;;4.98;93.36
62928;BME280;51070;52.236;-0.892;2023-02-28T00:50:48;102525.51;;;4.95;93.75
62928;BME280;51070;52.236;-0.892;2023-02-28T00:53:13;102525.71;;;4.91;93.65
62928;BME280;51070;52.236;-0.892;2023-02-28T00:55:38;102527.91;;;4.89;93.77
62928;BME280;51070;52.236;-0.892;2023-02-28T00:58:07;102532.62;;;4.86;93.82
62928;BME280;51070;52.236;-0.892;2023-02-28T01:00:32;102527.63;;;4.84;94.10
62928;BME280;51070;52.236;-0.892;2023-02-28T01:02:57;102530.10;;;4.85;94.02
62928;BME280;51070;52.236;-0.892;2023-02-28T01:05:22;102532.05;;;4.85;94.24
62928;BME280;51070;52.236;-0.892;2023-02-28T01:07:48;102530.08;;;4.86;94.28
62928;BME280;51070;52.236;-0.892;2023-02-28T01:10:14;102529.21;;;4.88;94.29
62928;BME280;51070;52.236;-0.892;2023-02-28T01:12:39;102530.44;;;4.91;94.41
62928;BME280;51070;52.236;-0.892;2023-02-28T01:15:05;102530.72;;;4.94;94.61
62928;BME280;51070;52.236;-0.892;2023-02-28T01:17:30;102533.41;;;4.97;94.37
62928;BME280;51070;52.236;-0.892;2023-02-28T01:19:55;102536.86;;;5.00;94.26
62928;BME280;51070;52.236;-0.892;2023-02-28T01:22:21;102533.20;;;5.01;94.14
62928;BME280;51070;52.236;-0.892;2023-02-28T01:24:46;102536.69;;;5.00;94.06
62928;BME280;51070;52.236;-0.892;2023-02-28T01:27:12;102539.33;;;4.99;93.93
62928;BME280;51070;52.236;-0.892;2023-02-28T01:29:38;102542.98;;;4.97;93.86
62928;BME280;51070;52.236;-0.892;2023-02-28T01:32:03;102544.91;;;4.96;93.85
62928;BME280;51070;52.236;-0.892;2023-02-28T01:34:28;102539.20;;;4.93;93.69
62928;BME280;51070;52.236;-0.892;2023-02-28T01:36:54;102541.52;;;4.90;93.76
62928;BME280;51070;52.236;-0.892;2023-02-28T01:39:19;102541.19;;;4.86;93.88
62928;BME280;51070;52.236;-0.892;2023-02-28T01:41:44;102542.66;;;4.81;94.08
62928;BME280;51070;52.236;-0.892;2023-02-28T01:46:58;102546.02;;;4.73;94.48
62928;BME280;51070;52.236;-0.892;2023-02-28T01:49:26;102546.70;;;4.70;94.84
62928;BME280;51070;52.236;-0.892;2023-02-28T01:51:52;102544.12;;;4.70;94.75
62928;BME280;51070;52.236;-0.892;2023-02-28T01:54:27;102544.52;;;4.71;94.75
62928;BME280;51070;52.236;-0.892;2023-02-28T01:57:00;102540.59;;;4.71;94.87
62928;BME280;51070;52.236;-0.892;2023-02-28T01:59:28;102544.52;;;4.73;95.04
62928;BME280;51070;52.236;-0.892;2023-02-28T02:01:55;102547.41;;;4.75;95.33
62928;BME280;51070;52.236;-0.892;2023-02-28T02:04:21;102544.67;;;4.77;95.38
62928;BME280;51070;52.236;-0.892;2023-02-28T02:06:48;102542.05;;;4.80;95.36
62928;BME280;51070;52.236;-0.892;2023-02-28T02:09:13;102542.95;;;4.81;95.23
62928;BME280;51070;52.236;-0.892;2023-02-28T02:11:40;102544.96;;;4.80;95.34
62928;BME280;51070;52.236;-0.892;2023-02-28T02:14:25;102550.91;;;4.82;95.32
62928;BME280;51070;52.236;-0.892;2023-02-28T02:24:47;102543.80;;;4.81;95.10
62928;BME280;51070;52.236;-0.892;2023-02-28T02:30:14;102550.27;;;4.76;95.31
62928;BME280;51070;52.236;-0.892;2023-02-28T02:33:06;102548.91;;;4.74;95.46
62928;BME280;51070;52.236;-0.892;2023-02-28T02:35:56;102544.66;;;4.75;95.59
62928;BME280;51070;52.236;-0.892;2023-02-28T02:38:31;102539.90;;;4.77;95.75
62928;BME280;51070;52.236;-0.892;2023-02-28T02:48:41;102539.75;;;4.89;95.94
62928;BME280;51070;52.236;-0.892;2023-02-28T02:51:13;102534.21;;;4.93;96.32
62928;BME280;51070;52.236;-0.892;2023-02-28T02:53:56;102529.86;;;4.98;96.27
62928;BME280;51070;52.236;-0.892;2023-02-28T02:56:24;102527.92;;;5.01;95.89
62928;BME280;51070;52.236;-0.892;2023-02-28T02:58:51;102526.14;;;5.01;95.58
62928;BME280;51070;52.236;-0.892;2023-02-28T03:01:19;102525.91;;;5.00;95.83
62928;BME280;51070;52.236;-0.892;2023-02-28T03:03:54;102524.30;;;4.99;95.80
62928;BME280;51070;52.236;-0.892;2023-02-28T03:06:19;102521.04;;;4.97;95.73
62928;BME280;51070;52.236;-0.892;2023-02-28T03:08:44;102517.27;;;4.95;95.77
62928;BME280;51070;52.236;-0.892;2023-02-28T03:11:13;102519.75;;;4.92;95.60
62928;BME280;51070;52.236;-0.892;2023-02-28T03:18:40;102513.59;;;4.82;96.00
62928;BME280;51070;52.236;-0.892;2023-02-28T03:23:48;102517.82;;;4.73;96.25
62928;BME280;51070;52.236;-0.892;2023-02-28T03:26:19;102520.39;;;4.71;96.76
62928;BME280;51070;52.236;-0.892;2023-02-28T03:31:17;102526.91;;;4.73;97.24
62928;BME280;51070;52.236;-0.892;2023-02-28T03:33:44;102525.08;;;4.76;97.36
62928;BME280;51070;52.236;-0.892;2023-02-28T03:36:20;102522.00;;;4.80;97.28
62928;BME280;51070;52.236;-0.892;2023-02-28T03:43:38;102519.89;;;4.91;97.10
62928;BME280;51070;52.236;-0.892;2023-02-28T03:46:06;102516.77;;;4.93;97.26
62928;BME280;51070;52.236;-0.892;2023-02-28T03:48:35;102511.40;;;4.94;97.07
62928;BME280;51070;52.236;-0.892;2023-02-28T03:51:02;102507.70;;;4.95;97.02
62928;BME280;51070;52.236;-0.892;2023-02-28T03:55:57;102510.29;;;4.91;96.55
62928;BME280;51070;52.236;-0.892;2023-02-28T03:58:33;102509.55;;;4.89;96.44
62928;BME280;51070;52.236;-0.892;2023-02-28T04:01:09;102517.14;;;4.85;96.55
62928;BME280;51070;52.236;-0.892;2023-02-28T04:03:36;102518.32;;;4.81;96.51
62928;BME280;51070;52.236;-0.892;2023-02-28T04:06:02;102517.91;;;4.78;96.56
62928;BME280;51070;52.236;-0.892;2023-02-28T04:08:28;102519.66;;;4.79;96.70
62928;BME280;51070;52.236;-0.892;2023-02-28T04:10:58;102519.09;;;4.80;96.80
62928;BME280;51070;52.236;-0.892;2023-02-28T04:13:26;102517.46;;;4.81;96.94
62928;BME280;51070;52.236;-0.892;2023-02-28T04:15:51;102518.17;;;4.83;97.39
62928;BME280;51070;52.236;-0.892;2023-02-28T04:18:16;102517.48;;;4.85;97.38
62928;BME280;51070;52.236;-0.892;2023-02-28T04:20:42;102517.84;;;4.88;97.38
62928;BME280;51070;52.236;-0.892;2023-02-28T04:23:07;102517.90;;;4.88;97.52
62928;BME280;51070;52.236;-0.892;2023-02-28T04:25:32;102518.31;;;4.89;97.44
62928;BME280;51070;52.236;-0.892;2023-02-28T04:27:57;102519.48;;;4.91;97.54
62928;BME280;51070;52.236;-0.892;2023-02-28T04:30:23;102520.73;;;4.91;97.42
62928;BME280;51070;52.236;-0.892;2023-02-28T04:32:48;102524.33;;;4.91;97.29
62928;BME280;51070;52.236;-0.892;2023-02-28T04:35:13;102524.41;;;4.90;97.16
62928;BME280;51070;52.236;-0.892;2023-02-28T04:37:38;102533.54;;;4.89;97.08
62928;BME280;51070;52.236;-0.892;2023-02-28T04:40:04;102533.77;;;4.88;97.03
62928;BME280;51070;52.236;-0.892;2023-02-28T04:42:29;102538.86;;;4.87;97.21
62928;BME280;51070;52.236;-0.892;2023-02-28T04:45:03;102537.50;;;4.87;96.95
62928;BME280;51070;52.236;-0.892;2023-02-28T04:47:28;102540.19;;;4.86;97.03
62928;BME280;51070;52.236;-0.892;2023-02-28T04:49:54;102536.63;;;4.85;96.71
62928;BME280;51070;52.236;-0.892;2023-02-28T04:52:19;102540.77;;;4.83;96.74
62928;BME280;51070;52.236;-0.892;2023-02-28T04:54:44;102544.20;;;4.85;96.71
62928;BME280;51070;52.236;-0.892;2023-02-28T04:57:10;102543.14;;;4.87;96.72
62928;BME280;51070;52.236;-0.892;2023-02-28T04:59:35;102544.63;;;4.90;96.30
62928;BME280;51070;52.236;-0.892;2023-02-28T05:02:00;102541.38;;;4.93;96.17
62928;BME280;51070;52.236;-0.892;2023-02-28T05:04:31;102541.00;;;4.96;96.11
62928;BME280;51070;52.236;-0.892;2023-02-28T05:06:59;102542.89;;;5.00;95.98
62928;BME280;51070;52.236;-0.892;2023-02-28T05:09:24;102537.19;;;5.04;95.13
62928;BME280;51070;52.236;-0.892;2023-02-28T05:11:49;102539.84;;;5.05;94.42
62928;BME280;51070;52.236;-0.892;2023-02-28T05:14:15;102548.33;;;5.06;94.01
62928;BME280;51070;52.236;-0.892;2023-02-28T05:16:40;102551.36;;;5.07;93.93
62928;BME280;51070;52.236;-0.892;2023-02-28T05:19:05;102547.41;;;5.09;93.68
62928;BME280;51070;52.236;-0.892;2023-02-28T05:21:32;102542.90;;;5.08;93.26
62928;BME280;51070;52.236;-0.892;2023-02-28T05:23:58;102543.36;;;5.08;93.11
62928;BME280;51070;52.236;-0.892;2023-02-28T05:26:24;102543.83;;;5.07;93.09
62928;BME280;51070;52.236;-0.892;2023-02-28T05:28:49;102546.05;;;5.07;93.13
62928;BME280;51070;52.236;-0.892;2023-02-28T05:31:15;102544.67;;;5.07;93.08
62928;BME280;51070;52.236;-0.892;2023-02-28T05:33:41;102546.32;;;5.06;93.37
62928;BME280;51070;52.236;-0.892;2023-02-28T05:36:06;102548.14;;;5.05;93.32
62928;BME280;51070;52.236;-0.892;2023-02-28T05:38:32;102547.10;;;5.03;93.27
62928;BME280;51070;52.236;-0.892;2023-02-28T05:40:57;102549.02;;;5.01;93.50
62928;BME280;51070;52.236;-0.892;2023-02-28T05:43:22;102550.41;;;5.00;93.69
62928;BME280;51070;52.236;-0.892;2023-02-28T05:45:48;102548.73;;;4.98;93.83
62928;BME280;51070;52.236;-0.892;2023-02-28T05:48:13;102549.14;;;4.97;93.80
62928;BME280;51070;52.236;-0.892;2023-02-28T05:50:39;102552.29;;;4.96;93.80
62928;BME280;51070;52.236;-0.892;2023-02-28T05:53:05;102552.96;;;4.96;93.77
62928;BME280;51070;52.236;-0.892;2023-02-28T05:55:30;102550.81;;;4.97;94.17
62928;BME280;51070;52.236;-0.892;2023-02-28T05:57:55;102550.20;;;4.97;94.12
62928;BME280;51070;52.236;-0.892;2023-02-28T06:00:21;102552.41;;;4.99;94.17
62928;BME280;51070;52.236;-0.892;2023-02-28T06:02:46;102558.42;;;5.03;93.90
62928;BME280;51070;52.236;-0.892;2023-02-28T06:05:16;102557.71;;;5.07;93.93
62928;BME280;51070;52.236;-0.892;2023-02-28T06:07:42;102561.73;;;5.08;93.30
62928;BME280;51070;52.236;-0.892;2023-02-28T06:10:08;102563.78;;;5.08;93.17
62928;BME280;51070;52.236;-0.892;2023-02-28T06:12:34;102569.15;;;5.09;92.95
62928;BME280;51070;52.236;-0.892;2023-02-28T06:14:59;102567.94;;;5.09;92.94
62928;BME280;51070;52.236;-0.892;2023-02-28T06:17:25;102569.59;;;5.08;92.65
62928;BME280;51070;52.236;-0.892;2023-02-28T06:19:50;102572.64;;;5.08;92.59
62928;BME280;51070;52.236;-0.892;2023-02-28T06:22:15;102573.42;;;5.09;92.54
62928;BME280;51070;52.236;-0.892;2023-02-28T06:24:41;102576.39;;;5.10;92.44
62928;BME280;51070;52.236;-0.892;2023-02-28T06:27:06;102576.78;;;5.08;92.52
62928;BME280;51070;52.236;-0.892;2023-02-28T06:29:32;102577.66;;;5.06;92.50
62928;BME280;51070;52.236;-0.892;2023-02-28T06:31:57;102579.36;;;5.04;92.65
62928;BME280;51070;52.236;-0.892;2023-02-28T06:34:23;102575.42;;;5.02;92.97
62928;BME280;51070;52.236;-0.892;2023-02-28T06:36:49;102574.89;;;5.01;93.12
62928;BME280;51070;52.236;-0.892;2023-02-28T06:39:15;102573.95;;;5.03;93.36
62928;BME280;51070;52.236;-0.892;2023-02-28T06:41:40;102572.84;;;5.06;93.42
62928;BME280;51070;52.236;-0.892;2023-02-28T06:44:15;102572.55;;;5.08;93.51
62928;BME280;51070;52.236;-0.892;2023-02-28T06:46:41;102569.44;;;5.12;93.50
62928;BME280;51070;52.236;-0.892;2023-02-28T06:49:08;102569.57;;;5.16;93.46
62928;BME280;51070;52.236;-0.892;2023-02-28T06:51:37;102577.16;;;5.17;93.35
62928;BME280;51070;52.236;-0.892;2023-02-28T06:54:02;102578.41;;;5.17;93.42
62928;BME280;51070;52.236;-0.892;2023-02-28T06:56:27;102581.59;;;5.19;93.28
62928;BME280;51070;52.236;-0.892;2023-02-28T06:58:53;102577.47;;;5.18;93.30
62928;BME280;51070;52.236;-0.892;2023-02-28T07:01:18;102574.67;;;5.17;93.32
62928;BME280;51070;52.236;-0.892;2023-02-28T07:03:44;102576.74;;;5.18;93.40
62928;BME280;51070;52.236;-0.892;2023-02-28T07:06:10;102577.95;;;5.18;93.33
62928;BME280;51070;52.236;-0.892;2023-02-28T07:08:35;102579.11;;;5.17;93.48
62928;BME280;51070;52.236;-0.892;2023-02-28T07:11:01;102579.82;;;5.16;93.43
62928;BME280;51070;52.236;-0.892;2023-02-28T07:13:26;102583.70;;;5.15;93.24
62928;BME280;51070;52.236;-0.892;2023-02-28T07:15:55;102589.00;;;5.15;93.01
62928;BME280;51070;52.236;-0.892;2023-02-28T07:18:21;102588.00;;;5.13;93.44
62928;BME280;51070;52.236;-0.892;2023-02-28T07:20:46;102588.11;;;5.15;93.39
62928;BME280;51070;52.236;-0.892;2023-02-28T07:23:12;102587.67;;;5.17;93.38
62928;BME280;51070;52.236;-0.892;2023-02-28T07:25:37;102587.45;;;5.21;93.55
62928;BME280;51070;52.236;-0.892;2023-02-28T07:28:02;102586.73;;;5.24;93.38
62928;BME280;51070;52.236;-0.892;2023-02-28T07:30:27;102586.30;;;5.29;93.47
62928;BME280;51070;52.236;-0.892;2023-02-28T07:32:53;102587.98;;;5.35;93.71
62928;BME280;51070;52.236;-0.892;2023-02-28T07:35:21;102589.95;;;5.40;93.88
62928;BME280;51070;52.236;-0.892;2023-02-28T07:37:47;102589.24;;;5.44;93.54
62928;BME280;51070;52.236;-0.892;2023-02-28T07:40:12;102589.71;;;5.46;93.63
62928;BME280;51070;52.236;-0.892;2023-02-28T07:42:38;102596.20;;;5.47;93.65
62928;BME280;51070;52.236;-0.892;2023-02-28T07:45:04;102594.92;;;5.49;93.52
62928;BME280;51070;52.236;-0.892;2023-02-28T07:47:30;102592.84;;;5.48;93.81
62928;BME280;51070;52.236;-0.892;2023-02-28T07:49:55;102594.83;;;5.49;94.16
62928;BME280;51070;52.236;-0.892;2023-02-28T07:52:22;102594.21;;;5.51;94.19
62928;BME280;51070;52.236;-0.892;2023-02-28T07:54:49;102593.55;;;5.51;94.28
62928;BME280;51070;52.236;-0.892;2023-02-28T07:57:14;102595.74;;;5.51;94.22
62928;BME280;51070;52.236;-0.892;2023-02-28T07:59:39;102596.42;;;5.50;94.38
62928;BME280;51070;52.236;-0.892;2023-02-28T08:02:05;102597.83;;;5.51;94.55
62928;BME280;51070;52.236;-0.892;2023-02-28T08:04:33;102594.73;;;5.48;94.81
62928;BME280;51070;52.236;-0.892;2023-02-28T08:06:59;102596.05;;;5.46;95.00
62928;BME280;51070;52.236;-0.892;2023-02-28T08:09:24;102593.95;;;5.43;95.17
62928;BME280;51070;52.236;-0.892;2023-02-28T08:11:50;102597.17;;;5.42;95.56
62928;BME280;51070;52.236;-0.892;2023-02-28T08:14:15;102596.85;;;5.47;95.79
62928;BME280;51070;52.236;-0.892;2023-02-28T08:16:40;102598.77;;;5.52;95.86
62928;BME280;51070;52.236;-0.892;2023-02-28T08:19:07;102600.39;;;5.55;96.03
62928;BME280;51070;52.236;-0.892;2023-02-28T08:21:33;102602.02;;;5.58;96.17
62928;BME280;51070;52.236;-0.892;2023-02-28T08:23:58;102597.48;;;5.63;96.44
62928;BME280;51070;52.236;-0.892;2023-02-28T08:26:24;102597.49;;;5.70;96.65
62928;BME280;51070;52.236;-0.892;2023-02-28T08:28:49;102595.98;;;5.74;96.58
62928;BME280;51070;52.236;-0.892;2023-02-28T08:31:15;102597.38;;;5.76;96.32
62928;BME280;51070;52.236;-0.892;2023-02-28T08:33:41;102599.45;;;5.77;96.11
62928;BME280;51070;52.236;-0.892;2023-02-28T08:36:07;102596.15;;;5.74;96.09
62928;BME280;51070;52.236;-0.892;2023-02-28T08:38:33;102591.61;;;5.73;96.25
62928;BME280;51070;52.236;-0.892;2023-02-28T08:40:59;102592.56;;;5.70;96.04
62928;BME280;51070;52.236;-0.892;2023-02-28T08:43:25;102585.84;;;5.74;96.40
62928;BME280;51070;52.236;-0.892;2023-02-28T08:45:54;102583.36;;;5.85;96.10
62928;BME280;51070;52.236;-0.892;2023-02-28T08:48:22;102583.63;;;6.03;96.10
62928;BME280;51070;52.236;-0.892;2023-02-28T08:50:54;102584.65;;;6.20;95.69
62928;BME280;51070;52.236;-0.892;2023-02-28T08:53:20;102584.63;;;6.42;95.44
62928;BME280;51070;52.236;-0.892;2023-02-28T08:55:45;102586.63;;;6.52;95.18
62928;BME280;51070;52.236;-0.892;2023-02-28T08:58:11;102585.83;;;6.53;95.16
62928;BME280;51070;52.236;-0.892;2023-02-28T09:00:36;102583.09;;;6.53;94.71
62928;BME280;51070;52.236;-0.892;2023-02-28T09:03:02;102582.90;;;6.53;94.70
62928;BME280;51070;52.236;-0.892;2023-02-28T09:05:27;102584.48;;;6.53;94.72
62928;BME280;51070;52.236;-0.892;2023-02-28T09:07:54;102577.13;;;6.54;94.46
62928;BME280;51070;52.236;-0.892;2023-02-28T09:10:19;102582.90;;;6.55;94.37
62928;BME280;51070;52.236;-0.892;2023-02-28T09:12:44;102580.70;;;6.55;93.99
62928;BME280;51070;52.236;-0.892;2023-02-28T09:15:12;102579.83;;;6.51;93.76
62928;BME280;51070;52.236;-0.892;2023-02-28T09:17:37;102576.33;;;6.44;93.98
62928;BME280;51070;52.236;-0.892;2023-02-28T09:20:03;102577.16;;;6.37;94.13
62928;BME280;51070;52.236;-0.892;2023-02-28T09:22:28;102577.09;;;6.29;94.03
62928;BME280;51070;52.236;-0.892;2023-02-28T09:24:54;102575.14;;;6.22;94.32
62928;BME280;51070;52.236;-0.892;2023-02-28T09:27:19;102578.55;;;6.17;94.66
62928;BME280;51070;52.236;-0.892;2023-02-28T09:29:44;102577.27;;;6.14;94.88
62928;BME280;51070;52.236;-0.892;2023-02-28T09:32:10;102576.09;;;6.12;95.17
62928;BME280;51070;52.236;-0.892;2023-02-28T09:34:35;102580.48;;;6.16;95.28
62928;BME280;51070;52.236;-0.892;2023-02-28T09:37:01;102580.31;;;6.18;95.64
62928;BME280;51070;52.236;-0.892;2023-02-28T09:39:27;102577.08;;;6.20;95.42
62928;BME280;51070;52.236;-0.892;2023-02-28T09:41:54;102581.65;;;6.24;95.39
62928;BME280;51070;52.236;-0.892;2023-02-28T09:44:39;102584.73;;;6.26;95.30
62928;BME280;51070;52.236;-0.892;2023-02-28T09:47:18;102583.83;;;6.25;95.23
62928;BME280;51070;52.236;-0.892;2023-02-28T09:49:49;102582.13;;;6.23;95.12
62928;BME280;51070;52.236;-0.892;2023-02-28T09:52:18;102588.92;;;6.20;95.16
62928;BME280;51070;52.236;-0.892;2023-02-28T09:54:44;102590.92;;;6.19;95.02
62928;BME280;51070;52.236;-0.892;2023-02-28T10:04:33;102591.16;;;6.31;95.10
62928;BME280;51070;52.236;-0.892;2023-02-28T10:07:02;102592.09;;;6.39;94.85
62928;BME280;51070;52.236;-0.892;2023-02-28T10:09:31;102592.61;;;6.54;94.67
62928;BME280;51070;52.236;-0.892;2023-02-28T10:12:05;102590.80;;;6.64;94.01
62928;BME280;51070;52.236;-0.892;2023-02-28T10:14:34;102590.66;;;6.68;93.67
62928;BME280;51070;52.236;-0.892;2023-02-28T10:17:04;102588.87;;;6.74;93.10
62928;BME280;51070;52.236;-0.892;2023-02-28T10:24:45;102585.62;;;6.97;92.63
62928;BME280;51070;52.236;-0.892;2023-02-28T10:29:37;102586.95;;;7.21;91.52
62928;BME280;51070;52.236;-0.892;2023-02-28T10:32:05;102583.52;;;7.24;91.21
62928;BME280;51070;52.236;-0.892;2023-02-28T10:34:30;102580.48;;;7.22;91.16
62928;BME280;51070;52.236;-0.892;2023-02-28T10:36:56;102578.14;;;7.18;90.76
62928;BME280;51070;52.236;-0.892;2023-02-28T10:42:00;102578.83;;;7.07;90.51
62928;BME280;51070;52.236;-0.892;2023-02-28T10:44:26;102575.24;;;7.05;90.47
62928;BME280;51070;52.236;-0.892;2023-02-28T10:46:51;102573.02;;;7.05;90.46
62928;BME280;51070;52.236;-0.892;2023-02-28T10:49:17;102569.36;;;7.07;90.54
62928;BME280;51070;52.236;-0.892;2023-02-28T10:51:45;102571.59;;;7.30;90.40
62928;BME280;51070;52.236;-0.892;2023-02-28T10:54:18;102572.04;;;7.54;90.18
62928;BME280;51070;52.236;-0.892;2023-02-28T10:56:44;102569.66;;;7.73;89.60
62928;BME280;51070;52.236;-0.892;2023-02-28T10:59:25;102569.58;;;7.91;89.52
62928;BME280;51070;52.236;-0.892;2023-02-28T11:01:51;102563.57;;;8.03;88.30
62928;BME280;51070;52.236;-0.892;2023-02-28T11:06:44;102564.15;;;8.04;87.32
62928;BME280;51070;52.236;-0.892;2023-02-28T11:09:45;102563.05;;;7.95;86.84
62928;BME280;51070;52.236;-0.892;2023-02-28T11:12:04;102563.67;;;7.85;86.80
62928;BME280;51070;52.236;-0.892;2023-02-28T11:14:32;102561.95;;;7.78;87.07
62928;BME280;51070;52.236;-0.892;2023-02-28T11:17:02;102557.20;;;7.75;87.15
62928;BME280;51070;52.236;-0.892;2023-02-28T11:19:38;102558.54;;;7.67;87.34
62928;BME280;51070;52.236;-0.892;2023-02-28T11:22:05;102558.66;;;7.62;87.67
62928;BME280;51070;52.236;-0.892;2023-02-28T11:24:32;102557.67;;;7.57;87.50
62928;BME280;51070;52.236;-0.892;2023-02-28T11:26:59;102556.73;;;7.49;87.26
62928;BME280;51070;52.236;-0.892;2023-02-28T11:29:28;102555.21;;;7.45;87.25
62928;BME280;51070;52.236;-0.892;2023-02-28T11:34:38;102552.27;;;7.45;87.68
62928;BME280;51070;52.236;-0.892;2023-02-28T11:37:04;102551.84;;;7.46;86.84
62928;BME280;51070;52.236;-0.892;2023-02-28T11:39:34;102547.48;;;7.50;87.17
62928;BME280;51070;52.236;-0.892;2023-02-28T11:44:47;102543.77;;;7.77;87.11
62928;BME280;51070;52.236;-0.892;2023-02-28T11:55:11;102522.95;;;8.57;84.80
62928;BME280;51070;52.236;-0.892;2023-02-28T11:58:00;102521.79;;;8.65;84.33
62928;BME280;51070;52.236;-0.892;2023-02-28T12:05:43;102514.87;;;8.42;83.30
62928;BME280;51070;52.236;-0.892;2023-02-28T12:08:15;102506.51;;;8.31;83.11
62928;BME280;51070;52.236;-0.892;2023-02-28T12:13:44;102505.13;;;8.19;83.66
62928;BME280;51070;52.236;-0.892;2023-02-28T12:24:12;102491.14;;;8.07;83.73
62928;BME280;51070;52.236;-0.892;2023-02-28T12:26:46;102488.98;;;8.10;83.83
62928;BME280;51070;52.236;-0.892;2023-02-28T12:34:41;102470.82;;;8.45;83.71
62928;BME280;51070;52.236;-0.892;2023-02-28T12:37:10;102462.34;;;8.62;82.82
62928;BME280;51070;52.236;-0.892;2023-02-28T12:39:44;102460.00;;;8.76;82.12
62928;BME280;51070;52.236;-0.892;2023-02-28T12:42:17;102459.11;;;8.94;81.16
62928;BME280;51070;52.236;-0.892;2023-02-28T12:48:00;102447.05;;;9.37;80.00
62928;BME280;51070;52.236;-0.892;2023-02-28T12:50:29;102444.45;;;9.42;79.96
62928;BME280;51070;52.236;-0.892;2023-02-28T12:53:00;102446.78;;;9.48;79.41
62928;BME280;51070;52.236;-0.892;2023-02-28T13:00:47;102441.43;;;9.21;79.65
62928;BME280;51070;52.236;-0.892;2023-02-28T13:10:55;102421.16;;;9.78;79.07
62928;BME280;51070;52.236;-0.892;2023-02-28T13:13:23;102420.92;;;9.76;78.12
62928;BME280;51070;52.236;-0.892;2023-02-28T13:15:56;102420.45;;;9.72;77.35
62928;BME280;51070;52.236;-0.892;2023-02-28T13:18:32;102421.89;;;9.56;77.10
62928;BME280;51070;52.236;-0.892;2023-02-28T13:20:58;102420.58;;;9.43;78.17
62928;BME280;51070;52.236;-0.892;2023-02-28T13:26:05;102412.39;;;9.58;77.56
62928;BME280;51070;52.236;-0.892;2023-02-28T13:31:15;102409.16;;;9.40;77.39
62928;BME280;51070;52.236;-0.892;2023-02-28T13:34:27;102409.60;;;9.23;78.12
62928;BME280;51070;52.236;-0.892;2023-02-28T13:36:30;102411.77;;;9.00;78.98
62928;BME280;51070;52.236;-0.892;2023-02-28T13:39:03;102416.48;;;8.97;80.01
62928;BME280;51070;52.236;-0.892;2023-02-28T13:41:48;102408.73;;;8.94;80.35
62928;BME280;51070;52.236;-0.892;2023-02-28T13:44:14;102412.92;;;8.89;81.07
62928;BME280;51070;52.236;-0.892;2023-02-28T13:52:15;102394.88;;;8.98;81.25
62928;BME280;51070;52.236;-0.892;2023-02-28T13:59:48;102384.09;;;8.99;80.69
62928;BME280;51070;52.236;-0.892;2023-02-28T14:07:09;102384.25;;;8.94;80.59
62928;BME280;51070;52.236;-0.892;2023-02-28T14:09:41;102382.59;;;9.03;80.28
62928;BME280;51070;52.236;-0.892;2023-02-28T14:14:55;102374.39;;;9.17;79.57
62928;BME280;51070;52.236;-0.892;2023-02-28T14:17:21;102368.84;;;9.22;79.75
62928;BME280;51070;52.236;-0.892;2023-02-28T14:19:46;102366.13;;;9.23;79.76
62928;BME280;51070;52.236;-0.892;2023-02-28T14:27:44;102369.79;;;9.10;79.71
62928;BME280;51070;52.236;-0.892;2023-02-28T14:38:27;102356.59;;;9.06;79.70
62928;BME280;51070;52.236;-0.892;2023-02-28T14:40:54;102347.68;;;9.01;79.58
62928;BME280;51070;52.236;-0.892;2023-02-28T14:43:22;102347.02;;;8.99;79.26
62928;BME280;51070;52.236;-0.892;2023-02-28T14:45:49;102348.53;;;8.93;78.99
62928;BME280;51070;52.236;-0.892;2023-02-28T14:48:16;102348.11;;;8.90;78.97
62928;BME280;51070;52.236;-0.892;2023-02-28T14:50:47;102347.75;;;8.87;78.98
62928;BME280;51070;52.236;-0.892;2023-02-28T14:53:15;102346.94;;;8.84;79.12
62928;BME280;51070;52.236;-0.892;2023-02-28T14:55:44;102342.27;;;8.87;79.69
62928;BME280;51070;52.236;-0.892;2023-02-28T14:58:19;102344.42;;;8.89;79.78
62928;BME280;51070;52.236;-0.892;2023-02-28T15:00:47;102347.88;;;8.86;79.36
62928;BME280;51070;52.236;-0.892;2023-02-28T15:06:03;102339.42;;;8.78;78.31
62928;BME280;51070;52.236;-0.892;2023-02-28T15:08:29;102338.27;;;8.78;77.97
62928;BME280;51070;52.236;-0.892;2023-02-28T15:11:01;102335.77;;;8.79;76.95
62928;BME280;51070;52.236;-0.892;2023-02-28T15:13:44;102335.96;;;8.80;76.69
62928;BME280;51070;52.236;-0.892;2023-02-28T15:16:32;102338.42;;;8.83;76.65
62928;BME280;51070;52.236;-0.892;2023-02-28T15:19:42;102332.23;;;8.89;76.04
62928;BME280;51070;52.236;-0.892;2023-02-28T15:21:50;102327.23;;;8.92;75.19
62928;BME280;51070;52.236;-0.892;2023-02-28T15:26:56;102323.47;;;8.90;74.91